createdAt,value
2018-05-01T00:02:43.313Z,1.7
2018-05-01T00:05:43.435Z,1.6
2018-05-01T00:08:43.347Z,1.7
2018-05-01T00:11:43.450Z,1.5
2018-05-01T00:14:43.422Z,1.4
2018-05-01T00:17:43.389Z,1.3
2018-05-01T00:20:43.433Z,1.6
2018-05-01T00:23:43.475Z,1.5
2018-05-01T00:26:43.292Z,1.3
2018-05-01T00:29:43.470Z,1.2
2018-05-01T00:32:43.416Z,1.5
2018-05-01T00:35:43.482Z,1.4
2018-05-01T00:38:43.447Z,1.3
2018-05-01T00:41:43.406Z,1.3
2018-05-01T00:44:43.372Z,1.3
2018-05-01T00:47:43.538Z,1.4
2018-05-01T00:50:43.359Z,2
2018-05-01T00:53:43.521Z,1.7
2018-05-01T00:56:43.300Z,1.4
2018-05-01T00:59:43.260Z,1.3
2018-05-01T01:02:43.339Z,1.4
2018-05-01T01:05:43.544Z,1.4
2018-05-01T01:08:43.468Z,1.3
2018-05-01T01:11:43.481Z,1.3
2018-05-01T01:14:43.283Z,1.3
2018-05-01T01:17:43.383Z,1.3
2018-05-01T01:20:43.407Z,1.2
2018-05-01T01:23:43.470Z,1.3
2018-05-01T01:26:43.326Z,1.3
2018-05-01T01:29:43.529Z,1.3
2018-05-01T01:32:43.399Z,1.3
2018-05-01T01:35:43.335Z,1.2
2018-05-01T01:38:43.357Z,1.2
2018-05-01T01:41:43.332Z,1.2
2018-05-01T01:44:43.548Z,1.1
2018-05-01T01:47:43.308Z,1.1
2018-05-01T01:50:43.290Z,1.1
2018-05-01T01:53:43.340Z,1.2
2018-05-01T01:56:43.330Z,1.1
2018-05-01T01:59:43.343Z,1.2
2018-05-01T02:02:43.263Z,1.3
2018-05-01T02:05:43.335Z,1.2
2018-05-01T02:08:43.588Z,1.3
2018-05-01T02:11:43.505Z,1.2
2018-05-01T02:14:43.320Z,1.1
2018-05-01T02:17:43.432Z,1.2
2018-05-01T02:20:43.307Z,1.1
2018-05-01T02:23:43.274Z,1.2
2018-05-01T02:26:43.409Z,1.1
2018-05-01T02:29:43.228Z,1.2
2018-05-01T02:32:43.370Z,1.2
2018-05-01T02:35:43.466Z,1.1
2018-05-01T02:38:43.524Z,1.1
2018-05-01T02:41:43.350Z,1.1
2018-05-01T02:44:43.330Z,1
2018-05-01T02:47:43.294Z,1.1
2018-05-01T02:50:43.318Z,1
2018-05-01T02:53:43.232Z,1.1
2018-05-01T02:56:43.361Z,1
2018-05-01T02:59:43.243Z,1
2018-05-01T03:02:43.419Z,0.9
2018-05-01T03:05:43.261Z,1
2018-05-01T03:08:43.521Z,1
2018-05-01T03:11:43.381Z,1.1
2018-05-01T03:14:43.512Z,1.1
2018-05-01T03:17:43.316Z,1
2018-05-01T03:20:43.391Z,0.9
2018-05-01T03:23:43.431Z,1
2018-05-01T03:26:43.229Z,1
2018-05-01T03:29:43.441Z,1
2018-05-01T03:32:43.331Z,1
2018-05-01T03:35:43.235Z,1
2018-05-01T03:38:43.352Z,1
2018-05-01T03:41:43.361Z,1
2018-05-01T03:44:43.535Z,1
2018-05-01T03:47:43.492Z,1
2018-05-01T03:50:43.313Z,1
2018-05-01T03:53:43.227Z,1
2018-05-01T03:56:43.253Z,1
2018-05-01T03:59:43.348Z,1
2018-05-01T04:02:43.344Z,1
2018-05-01T04:05:43.465Z,1
2018-05-01T04:08:43.340Z,0.9
2018-05-01T04:11:43.422Z,1
2018-05-01T04:14:43.264Z,0.9
2018-05-01T04:17:43.168Z,0.9
2018-05-01T04:20:43.245Z,0.9
2018-05-01T04:23:43.338Z,0.9
2018-05-01T04:26:43.376Z,0.9
2018-05-01T04:29:43.354Z,1
2018-05-01T04:41:36.264Z,1.1
2018-05-01T04:44:36.308Z,1
2018-05-01T04:47:36.205Z,1
2018-05-01T04:50:36.241Z,1
2018-05-01T04:53:36.249Z,0.9
2018-05-01T04:56:36.293Z,0.9
2018-05-01T04:59:36.279Z,0.9
2018-05-01T05:02:36.136Z,1
2018-05-01T05:05:36.347Z,1
2018-05-01T05:08:36.177Z,0.9
2018-05-01T05:11:36.170Z,0.9
2018-05-01T05:14:36.219Z,0.9
2018-05-01T05:17:36.283Z,0.9
2018-05-01T05:20:36.328Z,0.8
2018-05-01T05:23:36.396Z,0.8
2018-05-01T05:26:36.368Z,0.9
2018-05-01T05:29:36.258Z,0.9
2018-05-01T05:32:36.526Z,0.9
2018-05-01T05:35:36.489Z,0.9
2018-05-01T05:38:36.150Z,0.9
2018-05-01T05:41:36.149Z,0.9
2018-05-01T05:44:36.116Z,0.9
2018-05-01T05:47:36.316Z,0.9
2018-05-01T05:50:36.389Z,1
2018-05-01T05:53:36.125Z,0.9
2018-05-01T05:56:36.250Z,0.9
2018-05-01T05:59:36.109Z,0.9
2018-05-01T06:02:36.252Z,0.9
2018-05-01T06:05:36.154Z,0.9
2018-05-01T06:08:36.385Z,0.9
2018-05-01T06:11:36.264Z,0.9
2018-05-01T06:14:36.228Z,0.9
2018-05-01T06:17:36.285Z,0.8
2018-05-01T06:20:36.299Z,0.9
2018-05-01T06:23:36.305Z,0.9
2018-05-01T06:26:36.211Z,1
2018-05-01T06:29:36.197Z,0.9
2018-05-01T06:32:36.172Z,0.9
2018-05-01T06:35:36.254Z,1
2018-05-01T06:38:36.199Z,0.9
2018-05-01T06:41:36.330Z,1
2018-05-01T06:44:36.386Z,0.9
2018-05-01T06:47:36.325Z,1
2018-05-01T06:50:36.269Z,0.9
2018-05-01T06:53:36.632Z,0.9
2018-05-01T06:56:36.193Z,0.9
2018-05-01T06:59:36.244Z,0.9
2018-05-01T07:02:36.355Z,0.9
2018-05-01T07:05:36.384Z,0.9
2018-05-01T07:08:36.437Z,0.9
2018-05-01T07:11:36.259Z,0.9
2018-05-01T07:14:36.327Z,0.9
2018-05-01T07:17:36.271Z,0.9
2018-05-01T07:20:36.186Z,0.9
2018-05-01T07:23:36.262Z,0.9
2018-05-01T07:26:36.365Z,0.9
2018-05-01T07:29:36.385Z,0.9
2018-05-01T07:32:36.269Z,0.9
2018-05-01T07:35:37.071Z,0.9
2018-05-01T07:38:36.357Z,0.9
2018-05-01T07:41:37.289Z,1
2018-05-01T07:44:36.295Z,0.9
2018-05-01T07:47:36.353Z,0.9
2018-05-01T07:50:36.192Z,0.9
2018-05-01T07:53:36.197Z,0.9
2018-05-01T07:56:36.257Z,1
2018-05-01T07:59:36.196Z,0.9
2018-05-01T08:02:36.541Z,0.9
2018-05-01T08:05:36.609Z,6.1
2018-05-01T08:08:36.485Z,5.1
2018-05-01T08:11:36.409Z,5.7
2018-05-01T08:14:36.166Z,5.2
2018-05-01T08:17:36.558Z,3.8
2018-05-01T08:20:36.377Z,2.8
2018-05-01T08:23:36.206Z,3.5
2018-05-01T08:26:36.296Z,3.1
2018-05-01T08:29:36.365Z,2.7
2018-05-01T08:32:36.268Z,3.9
2018-05-01T08:35:36.302Z,2.7
2018-05-01T08:38:36.295Z,3.2
2018-05-01T08:41:36.194Z,3.2
2018-05-01T08:44:36.212Z,3.7
2018-05-01T08:47:36.901Z,3.5
2018-05-01T08:50:36.304Z,4.4
2018-05-01T08:53:36.170Z,4.3
2018-05-01T08:56:36.417Z,3.6
2018-05-01T08:59:36.378Z,4.8
2018-05-01T09:02:36.237Z,3.9
2018-05-01T09:05:36.334Z,4.7
2018-05-01T09:08:36.306Z,3.8
2018-05-01T09:11:36.220Z,3.3
2018-05-01T09:14:36.223Z,3.2
2018-05-01T09:17:36.867Z,3.6
2018-05-01T09:20:36.459Z,4.2
2018-05-01T09:23:36.234Z,3.5
2018-05-01T09:26:36.327Z,2.7
2018-05-01T09:29:36.208Z,2.1
2018-05-01T09:32:36.657Z,2.1
2018-05-01T09:35:36.167Z,2.2
2018-05-01T09:38:36.465Z,2.8
2018-05-01T09:41:36.158Z,2.2
2018-05-01T09:44:36.168Z,2.6
2018-05-01T09:47:36.688Z,3.5
2018-05-01T09:50:36.181Z,2.5
2018-05-01T09:53:36.135Z,2.9
2018-05-01T09:56:36.176Z,2.7
2018-05-01T09:59:36.188Z,2
2018-05-01T10:02:36.179Z,3.2
2018-05-01T10:05:36.234Z,4.6
2018-05-01T10:08:36.199Z,7
2018-05-01T10:11:36.278Z,8.2
2018-05-01T10:14:36.206Z,7.4
2018-05-01T10:17:36.116Z,7.7
2018-05-01T10:20:36.131Z,6.9
2018-05-01T10:23:36.174Z,5.8
2018-05-01T10:26:36.148Z,6.2
2018-05-01T10:29:36.526Z,6.2
2018-05-01T10:32:36.289Z,5.8
2018-05-01T10:35:36.292Z,6
2018-05-01T10:38:38.556Z,4.7
2018-05-01T10:41:36.376Z,4.4
2018-05-01T10:44:36.091Z,4.5
2018-05-01T10:47:36.163Z,3.7
2018-05-01T10:50:36.229Z,4.1
2018-05-01T10:53:36.374Z,3.6
2018-05-01T10:56:36.224Z,4
2018-05-01T10:59:36.173Z,4
2018-05-01T11:02:36.294Z,5.3
2018-05-01T11:05:36.146Z,3.8
2018-05-01T11:08:36.277Z,5.2
2018-05-01T11:11:36.235Z,5.2
2018-05-01T11:14:36.130Z,6.1
2018-05-01T11:17:36.528Z,5
2018-05-01T11:20:36.290Z,5.1
2018-05-01T11:23:36.050Z,5.9
2018-05-01T11:26:36.167Z,6
2018-05-01T11:29:36.127Z,6.9
2018-05-01T11:32:36.125Z,5.9
2018-05-01T11:35:36.104Z,5.1
2018-05-01T11:38:36.182Z,5.1
2018-05-01T11:41:36.268Z,5.3
2018-05-01T11:44:36.231Z,4.3
2018-05-01T11:47:36.219Z,5.7
2018-05-01T11:50:38.260Z,4.7
2018-05-01T11:53:36.178Z,4.4
2018-05-01T11:56:36.306Z,3.7
2018-05-01T11:59:36.047Z,2.6
2018-05-01T12:02:36.883Z,2.9
2018-05-01T12:05:36.219Z,3.5
2018-05-01T12:08:36.174Z,3.7
2018-05-01T12:11:36.127Z,3.5
2018-05-01T12:14:36.281Z,2.6
2018-05-01T12:17:36.369Z,2.8
2018-05-01T12:20:36.152Z,2.8
2018-05-01T12:23:36.627Z,2.9
2018-05-01T12:26:36.069Z,2.8
2018-05-01T12:29:36.292Z,3.9
2018-05-01T12:32:36.363Z,3.3
2018-05-01T12:35:36.301Z,3.3
2018-05-01T12:38:36.284Z,2.6
2018-05-01T12:41:36.117Z,2.6
2018-05-01T12:44:36.271Z,2.3
2018-05-01T12:47:36.153Z,2.3
2018-05-01T12:50:36.346Z,1.9
2018-05-01T12:53:36.372Z,2.8
2018-05-01T12:56:36.214Z,2.9
2018-05-01T12:59:36.200Z,2.4
2018-05-01T13:02:36.278Z,2.1
2018-05-01T13:05:36.223Z,2.4
2018-05-01T13:08:36.159Z,2.6
2018-05-01T13:11:36.063Z,2.5
2018-05-01T13:14:35.863Z,2.3
2018-05-01T13:17:36.173Z,1.9
2018-05-01T13:20:36.676Z,2.2
2018-05-01T13:23:36.258Z,2.3
2018-05-01T13:26:36.364Z,2.7
2018-05-01T13:29:36.153Z,2.2
2018-05-01T13:32:37.355Z,1.8
2018-05-01T13:35:36.230Z,1.9
2018-05-01T13:38:36.060Z,2.1
2018-05-01T13:41:36.447Z,1.9
2018-05-01T13:44:36.405Z,2.8
2018-05-01T13:47:36.176Z,2.2
2018-05-01T13:50:37.359Z,1.9
2018-05-01T13:53:36.082Z,2.6
2018-05-01T13:56:36.089Z,2.2
2018-05-01T13:59:35.971Z,2
2018-05-01T14:02:36.230Z,2.1
2018-05-01T14:05:36.099Z,1.9
2018-05-01T14:08:36.474Z,3
2018-05-01T14:11:36.264Z,3.3
2018-05-01T14:14:36.257Z,2.5
2018-05-01T14:17:36.110Z,2.7
2018-05-01T14:20:36.209Z,2.5
2018-05-01T14:23:36.204Z,2.9
2018-05-01T14:26:36.214Z,2.8
2018-05-01T14:29:35.995Z,2.4
2018-05-01T14:32:36.085Z,2.4
2018-05-01T14:35:36.068Z,2.2
2018-05-01T14:38:36.064Z,2.3
2018-05-01T14:41:36.159Z,2.5
2018-05-01T14:44:36.148Z,2
2018-05-01T14:47:36.015Z,1.7
2018-05-01T14:50:36.124Z,2
2018-05-01T14:53:36.138Z,1.8
2018-05-01T14:56:36.103Z,1.8
2018-05-01T14:59:36.237Z,1.6
2018-05-01T15:02:36.138Z,1.6
2018-05-01T15:05:35.993Z,1.5
2018-05-01T15:08:36.104Z,1.6
2018-05-01T15:11:36.060Z,1.8
2018-05-01T15:14:36.031Z,1.7
2018-05-01T15:17:36.209Z,1.6
2018-05-01T15:20:36.194Z,1.5
2018-05-01T15:23:36.110Z,1.8
2018-05-01T15:26:36.171Z,1.9
2018-05-01T15:29:36.176Z,1.8
2018-05-01T15:32:36.221Z,1.6
2018-05-01T15:35:36.057Z,1.6
2018-05-01T15:38:36.186Z,1.7
2018-05-01T15:41:36.188Z,1.5
2018-05-01T15:44:35.917Z,1.4
2018-05-01T15:47:36.246Z,2.2
2018-05-01T15:50:36.049Z,3.1
2018-05-01T15:53:36.199Z,2.3
2018-05-01T15:56:36.167Z,2.4
2018-05-01T15:59:36.098Z,2.4
2018-05-01T16:02:36.086Z,2.3
2018-05-01T16:05:36.092Z,3.3
2018-05-01T16:08:36.146Z,3.2
2018-05-01T16:11:36.204Z,3
2018-05-01T16:14:36.258Z,3.4
2018-05-01T16:17:36.274Z,3.4
2018-05-01T16:20:36.063Z,2.6
2018-05-01T16:23:36.190Z,3.6
2018-05-01T16:26:36.049Z,2.9
2018-05-01T16:29:36.249Z,2.4
2018-05-01T16:32:36.173Z,2.3
2018-05-01T16:35:36.350Z,2.5
2018-05-01T16:38:36.207Z,3.6
2018-05-01T16:41:36.084Z,3.1
2018-05-01T16:44:36.033Z,3.3
2018-05-01T16:47:36.319Z,2.9
2018-05-01T16:50:36.155Z,2.7
2018-05-01T16:53:35.952Z,3.1
2018-05-01T16:56:36.018Z,2.6
2018-05-01T16:59:35.951Z,3.5
2018-05-01T17:02:35.963Z,5.2
2018-05-01T17:05:35.983Z,5.1
2018-05-01T17:08:36.085Z,4.3
2018-05-01T17:11:36.048Z,3.9
2018-05-01T17:14:35.968Z,3.4
2018-05-01T17:17:35.850Z,4.6
2018-05-01T17:20:36.021Z,4.2
2018-05-01T17:23:35.887Z,5.6
2018-05-01T17:26:35.862Z,4.7
2018-05-01T17:29:35.856Z,4.2
2018-05-01T17:32:36.239Z,4.5
2018-05-01T17:35:35.946Z,5
2018-05-01T17:38:35.877Z,4.5
2018-05-01T17:41:35.928Z,3.8
2018-05-01T17:44:35.832Z,3.7
2018-05-01T17:47:35.857Z,4.2
2018-05-01T17:52:32.133Z,2.7
2018-05-01T17:55:32.145Z,2.4
2018-05-01T17:58:32.351Z,2.9
2018-05-01T18:01:32.185Z,2.7
2018-05-01T18:04:32.277Z,3
2018-05-01T18:07:32.174Z,2.7
2018-05-01T18:10:32.182Z,2.4
2018-05-01T18:13:32.180Z,2.5
2018-05-01T18:16:32.122Z,2.3
2018-05-01T18:19:32.183Z,2.5
2018-05-01T18:22:56.495Z,2
2018-05-01T18:25:32.317Z,2
2018-05-01T18:28:32.096Z,2.5
2018-05-01T18:31:32.079Z,2.4
2018-05-01T18:34:32.179Z,2.6
2018-05-01T18:37:32.272Z,2.1
2018-05-01T18:40:32.243Z,3
2018-05-01T18:43:32.124Z,4
2018-05-01T18:46:32.278Z,3
2018-05-01T18:49:32.360Z,2.8
2018-05-01T18:52:32.191Z,2.3
2018-05-01T18:55:32.092Z,3.6
2018-05-01T18:58:32.286Z,3.4
2018-05-01T19:01:32.151Z,3.6
2018-05-01T19:04:32.443Z,3
2018-05-01T19:07:32.023Z,2.5
2018-05-01T19:10:33.370Z,2.6
2018-05-01T19:13:32.252Z,2.9
2018-05-01T19:16:32.220Z,3.4
2018-05-01T19:19:32.228Z,2.5
2018-05-01T19:22:31.945Z,2.6
2018-05-01T19:25:31.956Z,2.4
2018-05-01T19:28:31.966Z,2.3
2018-05-01T19:31:32.019Z,2.2
2018-05-01T19:34:32.050Z,2.6
2018-05-01T19:37:32.233Z,6.2
2018-05-01T19:40:32.265Z,4.1
2018-05-01T19:43:32.147Z,4.4
2018-05-01T19:46:32.007Z,4
2018-05-01T19:49:32.011Z,2.9
2018-05-01T19:52:32.093Z,2.8
2018-05-01T19:55:32.105Z,3.8
2018-05-01T19:58:32.046Z,3.1
2018-05-01T20:01:32.129Z,4.6
2018-05-01T20:04:32.039Z,4.2
2018-05-01T20:07:32.017Z,3.3
2018-05-01T20:10:32.541Z,3
2018-05-01T20:13:32.172Z,3.5
2018-05-01T20:16:32.098Z,3
2018-05-01T20:19:32.197Z,3.6
2018-05-01T20:22:31.937Z,4.3
2018-05-01T20:25:32.192Z,4.4
2018-05-01T20:28:32.023Z,3.7
2018-05-01T20:31:32.221Z,3.3
2018-05-01T20:34:31.984Z,3.1
2018-05-01T20:37:32.159Z,3.5
2018-05-01T20:40:32.069Z,2.9
2018-05-01T20:43:32.066Z,2.6
2018-05-01T20:46:32.095Z,4
2018-05-01T20:49:32.090Z,3
2018-05-01T20:52:32.381Z,2.6
2018-05-01T20:55:32.147Z,2.4
2018-05-01T20:58:32.085Z,2.9
2018-05-01T21:01:32.131Z,2.5
2018-05-01T21:04:31.965Z,2.4
2018-05-01T21:07:32.121Z,2.4
2018-05-01T21:10:32.248Z,2.3
2018-05-01T21:13:32.154Z,2.3
2018-05-01T21:16:32.023Z,2.8
2018-05-01T21:19:32.015Z,3
2018-05-01T21:22:32.217Z,2.6
2018-05-01T21:25:32.016Z,2.3
2018-05-01T21:28:32.144Z,2.5
2018-05-01T21:31:32.477Z,2.8
2018-05-01T21:34:32.545Z,2.4
2018-05-01T21:37:32.051Z,2.3
2018-05-01T21:40:32.072Z,2.6
2018-05-01T21:43:32.165Z,2.8
2018-05-01T21:46:32.206Z,2.5
2018-05-01T21:49:32.147Z,2.3
2018-05-01T21:52:32.029Z,2.3
2018-05-01T21:55:31.906Z,2.5
2018-05-01T21:58:31.989Z,2.5
2018-05-01T22:01:32.011Z,2.5
2018-05-01T22:04:31.968Z,2.6
2018-05-01T22:07:32.033Z,2.2
2018-05-01T22:10:32.058Z,2
2018-05-01T22:13:31.939Z,2.1
2018-05-01T22:16:32.086Z,2.4
2018-05-01T22:19:31.973Z,2.2
2018-05-01T22:22:31.962Z,2
2018-05-01T22:25:32.014Z,2.7
2018-05-01T22:28:32.063Z,2.4
2018-05-01T22:31:32.040Z,2.2
2018-05-01T22:34:32.033Z,2.1
2018-05-01T22:37:32.176Z,2.1
2018-05-01T22:40:32.401Z,2.3
2018-05-01T22:43:32.084Z,2.2
2018-05-01T22:46:32.056Z,2.1
2018-05-01T22:49:32.070Z,2.1
2018-05-01T22:52:32.125Z,2.3
2018-05-01T22:55:32.147Z,2.7
2018-05-01T22:58:32.035Z,2.3
2018-05-01T23:01:32.052Z,2.1
2018-05-01T23:04:32.051Z,2.1
2018-05-01T23:07:32.241Z,2.1
2018-05-01T23:10:31.942Z,2
2018-05-01T23:13:32.108Z,2
2018-05-01T23:16:31.945Z,2
2018-05-01T23:19:31.937Z,2
2018-05-01T23:22:31.994Z,1.9
2018-05-01T23:25:32.100Z,2
2018-05-01T23:28:31.938Z,2
2018-05-01T23:31:31.876Z,2
2018-05-01T23:34:32.091Z,1.9
2018-05-01T23:37:31.877Z,2.1
2018-05-01T23:40:31.968Z,2
2018-05-01T23:43:31.969Z,1.9
2018-05-01T23:46:31.989Z,2.1
2018-05-01T23:49:31.924Z,1.9
2018-05-01T23:52:31.955Z,2
2018-05-01T23:55:32.155Z,2
2018-05-01T23:58:32.071Z,1.9
